»·PEaware :: DAL1120 KEGE-KASE

DAL1120 :: KEGE-KASE

FLIGHT INFORMATION

Flight Status: Arrived
Operator:
Delta Air Lines
More flights by this operator :: More flights under this callsign
Pilot: Sergei F. (8485)
Aircraft: BOEING 737-300
(B733)
More flights by this aircraft type
Origin: KEGE Eagle Co Regl
United States
Destination: KASE Aspen-Pitkin Co/Sardy
United States
More flights between these airports :: More routes between these airports
Route: GYPSM5 RLG V421 DBL
File this flight plan on PilotEdge
Remarks:
Altitude:
(Current/Filed)
16,000ft
Speed:
(Current/Filed)
300kts
Departed: 13-Jan-18 08:10 PM
Arrived: 13-Jan-18 08:38 PM
Distance/Time
Traveled:
26nm/0:27
Distance/Time
To Go:
Arrived

Flight Plot

Page will automatically refresh every two minutes.

Flight plan parsing failed; only flown route is shown


Map Options




Map Legend


Flown Route
Filed Route
Departure Airport
Arrival Airport
Navaid (VOR, NDB)
Fix

Horizontal Profiles

Position Reports

Time Latitude Longitude Heading Altitude Ground
Speed
13-Jan-18 19:49 39.640519 -106.915172 171 6553ft 0kts
13-Jan-18 19:50 39.640519 -106.915172 171 6553ft 0kts
13-Jan-18 19:51 39.640519 -106.915173 171 6553ft 0kts
13-Jan-18 19:52 39.640519 -106.915172 171 6553ft 0kts
13-Jan-18 19:53 39.640519 -106.915173 171 6553ft 0kts
13-Jan-18 19:54 39.640519 -106.915172 171 6553ft 0kts
13-Jan-18 19:55 39.640519 -106.915172 171 6553ft 0kts
13-Jan-18 19:56 39.640519 -106.915172 171 6553ft 0kts
13-Jan-18 19:57 39.640519 -106.915172 171 6553ft 0kts
13-Jan-18 19:58 39.640519 -106.915172 171 6553ft 0kts
13-Jan-18 19:59 39.640519 -106.915172 171 6553ft 0kts
13-Jan-18 20:00 39.640519 -106.915172 171 6553ft 0kts
13-Jan-18 20:01 39.640519 -106.915172 171 6553ft 0kts
13-Jan-18 20:02 39.640543 -106.915177 171 6553ft 0kts
13-Jan-18 20:03 39.641079 -106.915270 172 6553ft 0kts
13-Jan-18 20:04 39.641163 -106.915258 263 6553ft 0kts
13-Jan-18 20:05 39.641163 -106.915258 263 6553ft 0kts
13-Jan-18 20:06 39.641163 -106.915258 263 6553ft 0kts
13-Jan-18 20:07 39.641163 -106.915258 263 6553ft 0kts
13-Jan-18 20:08 39.641163 -106.915258 263 6553ft 0kts
13-Jan-18 20:09 39.641131 -106.915617 262 6553ft 4kts
13-Jan-18 20:10 39.641433 -106.917405 27 6553ft 9kts
13-Jan-18 20:11 39.642045 -106.913307 81 6553ft 11kts
13-Jan-18 20:12 39.642530 -106.908777 82 6553ft 14kts
13-Jan-18 20:13 39.643037 -106.904065 82 6553ft 9kts
13-Jan-18 20:14 39.643827 -106.901847 349 6553ft 7kts
13-Jan-18 20:15 39.644337 -106.902804 262 6553ft 21kts
13-Jan-18 20:16 39.632232 -106.945374 223 8077ft 170kts
13-Jan-18 20:17 39.596006 -106.988139 240 10169ft 188kts
13-Jan-18 20:18 39.619285 -107.029473 338 12611ft 179kts
13-Jan-18 20:19 39.668985 -107.055185 335 14746ft 216kts
13-Jan-18 20:20 39.703990 -107.003352 111 16027ft 288kts
13-Jan-18 20:21 39.634276 -106.960408 170 15990ft 329kts
13-Jan-18 20:22 39.550695 -106.932470 170 15866ft 282kts
13-Jan-18 20:23 39.480060 -106.927422 219 14200ft 242kts
13-Jan-18 20:24 39.421901 -106.946646 189 13979ft 219kts
13-Jan-18 20:25 39.362970 -106.936453 164 13487ft 204kts
13-Jan-18 20:26 39.315921 -106.913170 165 11548ft 169kts
13-Jan-18 20:27 39.281169 -106.896493 164 9539ft 154kts
13-Jan-18 20:28 39.237728 -106.875869 164 7913ft 146kts
13-Jan-18 20:29 39.206327 -106.867536 219 9274ft 150kts
13-Jan-18 20:30 39.222717 -106.914695 317 10918ft 175kts
13-Jan-18 20:31 39.260246 -106.965132 312 11448ft 165kts
13-Jan-18 20:32 39.286528 -107.004695 309 12081ft 179kts
13-Jan-18 20:33 39.325490 -107.067465 309 13031ft 206kts
13-Jan-18 20:34 39.356021 -107.117214 309 13996ft 217kts
13-Jan-18 20:35 39.413577 -107.119216 9 13991ft 228kts
13-Jan-18 20:36 39.474347 -107.098023 17 13982ft 230kts
13-Jan-18 20:37 39.479652 -107.022194 128 14025ft 252kts
13-Jan-18 20:38 39.436509 -106.968008 158 14072ft 187kts
13-Jan-18 20:39 39.391080 -106.948174 169 13140ft 170kts
13-Jan-18 20:40 39.347400 -106.928547 164 11661ft 163kts
13-Jan-18 20:41 39.305740 -106.907695 164 9562ft 156kts
13-Jan-18 20:42 39.267640 -106.890223 164 8441ft 142kts
13-Jan-18 20:43 39.231554 -106.872847 164 7708ft 133kts
13-Jan-18 20:44 39.220301 -106.867283 114 7765ft 6kts
13-Jan-18 20:45 39.220277 -106.866361 128 7768ft 0kts
13-Jan-18 20:46 39.218988 -106.865253 115 7778ft 7kts

Navigation Log

Ident Type
Flight plan parsing failed, navigation log unavailable